sensor_id;sensor_type;location;lat;lon;timestamp;temperature;humidity
67899;DHT22;54699;51.796;10.956;2023-06-22T00:01:12;25.90;57.70
67899;DHT22;54699;51.796;10.956;2023-06-22T00:03:39;25.90;57.80
67899;DHT22;54699;51.796;10.956;2023-06-22T00:06:06;25.90;57.80
67899;DHT22;54699;51.796;10.956;2023-06-22T00:08:34;25.90;57.80
67899;DHT22;54699;51.796;10.956;2023-06-22T00:11:01;25.90;57.80
67899;DHT22;54699;51.796;10.956;2023-06-22T00:13:28;25.90;57.80
67899;DHT22;54699;51.796;10.956;2023-06-22T00:15:55;25.90;58.80
67899;DHT22;54699;51.796;10.956;2023-06-22T00:18:22;25.90;57.90
67899;DHT22;54699;51.796;10.956;2023-06-22T00:20:53;25.80;58.00
67899;DHT22;54699;51.796;10.956;2023-06-22T00:23:23;25.80;57.90
67899;DHT22;54699;51.796;10.956;2023-06-22T00:25:52;25.80;58.00
67899;DHT22;54699;51.796;10.956;2023-06-22T00:28:19;25.80;58.00
67899;DHT22;54699;51.796;10.956;2023-06-22T00:30:47;25.80;58.00
67899;DHT22;54699;51.796;10.956;2023-06-22T00:33:14;25.80;57.90
67899;DHT22;54699;51.796;10.956;2023-06-22T00:35:41;25.80;58.00
67899;DHT22;54699;51.796;10.956;2023-06-22T00:38:08;25.80;58.00
67899;DHT22;54699;51.796;10.956;2023-06-22T00:40:35;25.90;58.10
67899;DHT22;54699;51.796;10.956;2023-06-22T00:43:04;25.80;58.00
67899;DHT22;54699;51.796;10.956;2023-06-22T00:45:31;25.80;58.00
67899;DHT22;54699;51.796;10.956;2023-06-22T00:47:58;25.80;58.00
67899;DHT22;54699;51.796;10.956;2023-06-22T00:50:26;25.80;58.10
67899;DHT22;54699;51.796;10.956;2023-06-22T00:52:59;25.80;59.00
67899;DHT22;54699;51.796;10.956;2023-06-22T00:55:29;25.80;58.00
67899;DHT22;54699;51.796;10.956;2023-06-22T00:57:56;25.80;58.00
67899;DHT22;54699;51.796;10.956;2023-06-22T01:00:24;25.80;58.10
67899;DHT22;54699;51.796;10.956;2023-06-22T01:02:51;25.80;58.10
67899;DHT22;54699;51.796;10.956;2023-06-22T01:05:19;25.80;58.00
67899;DHT22;54699;51.796;10.956;2023-06-22T01:10:36;25.80;58.10
67899;DHT22;54699;51.796;10.956;2023-06-22T01:13:10;25.80;58.10
67899;DHT22;54699;51.796;10.956;2023-06-22T01:15:48;25.70;58.00
67899;DHT22;54699;51.796;10.956;2023-06-22T01:18:18;25.70;58.00
67899;DHT22;54699;51.796;10.956;2023-06-22T01:20:45;25.70;58.10
67899;DHT22;54699;51.796;10.956;2023-06-22T01:23:17;25.70;58.20
67899;DHT22;54699;51.796;10.956;2023-06-22T01:25:59;25.70;58.10
67899;DHT22;54699;51.796;10.956;2023-06-22T01:28:43;25.70;58.20
67899;DHT22;54699;51.796;10.956;2023-06-22T01:31:13;25.70;58.00
67899;DHT22;54699;51.796;10.956;2023-06-22T01:33:43;25.70;58.10
67899;DHT22;54699;51.796;10.956;2023-06-22T01:36:13;25.70;58.10
67899;DHT22;54699;51.796;10.956;2023-06-22T01:38:40;25.70;58.10
67899;DHT22;54699;51.796;10.956;2023-06-22T01:41:09;25.70;58.10
67899;DHT22;54699;51.796;10.956;2023-06-22T01:43:36;25.70;58.10
67899;DHT22;54699;51.796;10.956;2023-06-22T01:46:05;25.70;58.10
67899;DHT22;54699;51.796;10.956;2023-06-22T01:48:32;25.70;58.10
67899;DHT22;54699;51.796;10.956;2023-06-22T01:51:00;25.70;58.10
67899;DHT22;54699;51.796;10.956;2023-06-22T01:53:27;25.70;58.20
67899;DHT22;54699;51.796;10.956;2023-06-22T01:55:53;25.70;58.20
67899;DHT22;54699;51.796;10.956;2023-06-22T01:58:20;25.70;58.20
67899;DHT22;54699;51.796;10.956;2023-06-22T02:00:51;25.60;58.20
67899;DHT22;54699;51.796;10.956;2023-06-22T02:03:26;25.60;58.10
67899;DHT22;54699;51.796;10.956;2023-06-22T02:05:58;25.70;58.10
67899;DHT22;54699;51.796;10.956;2023-06-22T02:08:30;25.60;59.10
67899;DHT22;54699;51.796;10.956;2023-06-22T02:11:01;25.70;58.20
67899;DHT22;54699;51.796;10.956;2023-06-22T02:13:30;25.60;58.20
67899;DHT22;54699;51.796;10.956;2023-06-22T02:15:57;25.60;58.20
67899;DHT22;54699;51.796;10.956;2023-06-22T02:18:25;25.60;58.20
67899;DHT22;54699;51.796;10.956;2023-06-22T02:20:52;25.60;58.20
67899;DHT22;54699;51.796;10.956;2023-06-22T02:23:19;25.60;58.20
67899;DHT22;54699;51.796;10.956;2023-06-22T02:25:45;25.60;58.20
67899;DHT22;54699;51.796;10.956;2023-06-22T02:28:12;25.60;58.20
67899;DHT22;54699;51.796;10.956;2023-06-22T02:30:39;25.60;58.20
67899;DHT22;54699;51.796;10.956;2023-06-22T02:33:06;25.60;58.20
67899;DHT22;54699;51.796;10.956;2023-06-22T02:35:34;25.60;58.20
67899;DHT22;54699;51.796;10.956;2023-06-22T02:38:02;25.60;58.20
67899;DHT22;54699;51.796;10.956;2023-06-22T02:40:30;25.60;58.20
67899;DHT22;54699;51.796;10.956;2023-06-22T02:42:57;25.60;58.30
67899;DHT22;54699;51.796;10.956;2023-06-22T02:45:27;25.60;58.40
67899;DHT22;54699;51.796;10.956;2023-06-22T02:47:53;25.60;58.30
67899;DHT22;54699;51.796;10.956;2023-06-22T02:50:21;25.60;59.30
67899;DHT22;54699;51.796;10.956;2023-06-22T02:52:49;25.60;58.30
67899;DHT22;54699;51.796;10.956;2023-06-22T02:55:16;25.60;58.30
67899;DHT22;54699;51.796;10.956;2023-06-22T02:57:43;25.60;58.40
67899;DHT22;54699;51.796;10.956;2023-06-22T03:00:12;25.60;58.50
67899;DHT22;54699;51.796;10.956;2023-06-22T03:02:43;25.60;58.40
67899;DHT22;54699;51.796;10.956;2023-06-22T03:05:10;25.60;58.50
67899;DHT22;54699;51.796;10.956;2023-06-22T03:07:39;25.50;58.40
67899;DHT22;54699;51.796;10.956;2023-06-22T03:10:09;25.50;58.30
67899;DHT22;54699;51.796;10.956;2023-06-22T03:12:37;25.50;58.30
67899;DHT22;54699;51.796;10.956;2023-06-22T03:15:05;25.50;58.50
67899;DHT22;54699;51.796;10.956;2023-06-22T03:17:33;25.50;58.50
67899;DHT22;54699;51.796;10.956;2023-06-22T03:20:00;25.60;58.60
67899;DHT22;54699;51.796;10.956;2023-06-22T03:22:31;25.50;58.30
67899;DHT22;54699;51.796;10.956;2023-06-22T03:24:58;25.50;58.40
67899;DHT22;54699;51.796;10.956;2023-06-22T03:27:26;25.50;58.40
67899;DHT22;54699;51.796;10.956;2023-06-22T03:29:53;25.50;58.50
67899;DHT22;54699;51.796;10.956;2023-06-22T03:32:20;25.50;58.50
67899;DHT22;54699;51.796;10.956;2023-06-22T03:34:47;25.50;58.50
67899;DHT22;54699;51.796;10.956;2023-06-22T03:37:13;25.50;58.50
67899;DHT22;54699;51.796;10.956;2023-06-22T03:39:40;25.50;58.50
67899;DHT22;54699;51.796;10.956;2023-06-22T03:42:07;25.50;58.50
67899;DHT22;54699;51.796;10.956;2023-06-22T03:44:36;25.50;58.50
67899;DHT22;54699;51.796;10.956;2023-06-22T03:47:03;25.50;58.50
67899;DHT22;54699;51.796;10.956;2023-06-22T03:49:32;25.50;58.50
67899;DHT22;54699;51.796;10.956;2023-06-22T03:51:59;25.50;58.50
67899;DHT22;54699;51.796;10.956;2023-06-22T03:54:27;25.50;58.50
67899;DHT22;54699;51.796;10.956;2023-06-22T03:56:55;25.50;58.50
67899;DHT22;54699;51.796;10.956;2023-06-22T03:59:23;25.50;58.60
67899;DHT22;54699;51.796;10.956;2023-06-22T04:01:52;25.50;58.60
67899;DHT22;54699;51.796;10.956;2023-06-22T04:04:21;25.50;58.60
67899;DHT22;54699;51.796;10.956;2023-06-22T04:06:47;25.50;58.50
67899;DHT22;54699;51.796;10.956;2023-06-22T04:09:14;25.50;58.40
67899;DHT22;54699;51.796;10.956;2023-06-22T04:11:41;25.40;58.50
67899;DHT22;54699;51.796;10.956;2023-06-22T04:14:11;25.40;58.70
67899;DHT22;54699;51.796;10.956;2023-06-22T04:16:38;25.40;58.90
67899;DHT22;54699;51.796;10.956;2023-06-22T04:19:06;25.40;59.10
67899;DHT22;54699;51.796;10.956;2023-06-22T04:21:39;25.40;59.10
67899;DHT22;54699;51.796;10.956;2023-06-22T04:24:06;25.50;59.00
67899;DHT22;54699;51.796;10.956;2023-06-22T04:26:33;25.40;58.70
67899;DHT22;54699;51.796;10.956;2023-06-22T04:29:02;25.50;58.70
67899;DHT22;54699;51.796;10.956;2023-06-22T04:31:30;25.40;58.50
67899;DHT22;54699;51.796;10.956;2023-06-22T04:34:02;25.20;60.50
67899;DHT22;54699;51.796;10.956;2023-06-22T04:36:34;25.10;61.40
67899;DHT22;54699;51.796;10.956;2023-06-22T04:39:03;24.70;62.40
67899;DHT22;54699;51.796;10.956;2023-06-22T04:41:31;24.30;62.70
67899;DHT22;54699;51.796;10.956;2023-06-22T04:44:07;23.90;63.90
67899;DHT22;54699;51.796;10.956;2023-06-22T04:46:34;23.70;64.70
67899;DHT22;54699;51.796;10.956;2023-06-22T04:49:04;23.60;65.20
67899;DHT22;54699;51.796;10.956;2023-06-22T04:51:43;23.50;65.50
67899;DHT22;54699;51.796;10.956;2023-06-22T04:54:11;23.50;65.90
67899;DHT22;54699;51.796;10.956;2023-06-22T04:56:38;23.40;66.00
67899;DHT22;54699;51.796;10.956;2023-06-22T04:59:11;23.40;66.10
67899;DHT22;54699;51.796;10.956;2023-06-22T05:01:39;23.50;65.70
67899;DHT22;54699;51.796;10.956;2023-06-22T05:04:06;23.40;65.70
67899;DHT22;54699;51.796;10.956;2023-06-22T05:06:34;23.50;65.80
67899;DHT22;54699;51.796;10.956;2023-06-22T05:09:05;23.70;65.50
67899;DHT22;54699;51.796;10.956;2023-06-22T05:11:32;23.70;65.10
67899;DHT22;54699;51.796;10.956;2023-06-22T05:14:00;23.70;64.90
67899;DHT22;54699;51.796;10.956;2023-06-22T05:16:26;23.70;64.80
67899;DHT22;54699;51.796;10.956;2023-06-22T05:18:54;23.70;64.90
67899;DHT22;54699;51.796;10.956;2023-06-22T05:21:21;23.70;64.80
67899;DHT22;54699;51.796;10.956;2023-06-22T05:23:49;23.60;64.70
67899;DHT22;54699;51.796;10.956;2023-06-22T05:26:18;23.50;64.60
67899;DHT22;54699;51.796;10.956;2023-06-22T05:28:46;23.60;64.50
67899;DHT22;54699;51.796;10.956;2023-06-22T05:31:13;23.50;64.20
67899;DHT22;54699;51.796;10.956;2023-06-22T05:33:41;23.80;63.40
67899;DHT22;54699;51.796;10.956;2023-06-22T05:36:09;23.90;63.10
67899;DHT22;54699;51.796;10.956;2023-06-22T05:38:38;24.00;62.60
67899;DHT22;54699;51.796;10.956;2023-06-22T05:41:06;24.00;62.50
67899;DHT22;54699;51.796;10.956;2023-06-22T05:43:35;24.40;61.70
67899;DHT22;54699;51.796;10.956;2023-06-22T05:46:03;24.00;61.20
67899;DHT22;54699;51.796;10.956;2023-06-22T05:48:31;24.10;61.20
67899;DHT22;54699;51.796;10.956;2023-06-22T05:50:58;24.10;60.60
67899;DHT22;54699;51.796;10.956;2023-06-22T05:53:25;24.20;60.70
67899;DHT22;54699;51.796;10.956;2023-06-22T05:55:53;24.20;60.00
67899;DHT22;54699;51.796;10.956;2023-06-22T05:58:20;24.30;59.90
67899;DHT22;54699;51.796;10.956;2023-06-22T06:00:49;24.30;60.10
67899;DHT22;54699;51.796;10.956;2023-06-22T06:03:18;24.20;59.80
67899;DHT22;54699;51.796;10.956;2023-06-22T06:05:45;24.50;59.40
67899;DHT22;54699;51.796;10.956;2023-06-22T06:08:13;24.40;59.10
67899;DHT22;54699;51.796;10.956;2023-06-22T06:10:41;24.50;58.90
67899;DHT22;54699;51.796;10.956;2023-06-22T06:13:08;24.20;59.40
67899;DHT22;54699;51.796;10.956;2023-06-22T06:15:36;24.10;60.20
67899;DHT22;54699;51.796;10.956;2023-06-22T06:18:08;24.20;60.30
67899;DHT22;54699;51.796;10.956;2023-06-22T06:20:38;24.20;60.10
67899;DHT22;54699;51.796;10.956;2023-06-22T06:23:05;24.10;60.10
67899;DHT22;54699;51.796;10.956;2023-06-22T06:25:32;24.10;60.20
67899;DHT22;54699;51.796;10.956;2023-06-22T06:28:00;24.10;60.20
67899;DHT22;54699;51.796;10.956;2023-06-22T06:30:27;24.10;60.10
67899;DHT22;54699;51.796;10.956;2023-06-22T06:32:54;24.10;60.30
67899;DHT22;54699;51.796;10.956;2023-06-22T06:35:22;24.00;60.20
67899;DHT22;54699;51.796;10.956;2023-06-22T06:37:50;24.10;60.30
67899;DHT22;54699;51.796;10.956;2023-06-22T06:40:18;24.10;60.30
67899;DHT22;54699;51.796;10.956;2023-06-22T06:42:46;24.00;60.10
67899;DHT22;54699;51.796;10.956;2023-06-22T06:45:15;24.20;60.10
67899;DHT22;54699;51.796;10.956;2023-06-22T06:47:43;24.00;60.00
67899;DHT22;54699;51.796;10.956;2023-06-22T06:50:10;24.10;60.30
67899;DHT22;54699;51.796;10.956;2023-06-22T06:52:39;24.10;60.00
67899;DHT22;54699;51.796;10.956;2023-06-22T06:55:08;24.20;59.80
67899;DHT22;54699;51.796;10.956;2023-06-22T06:57:45;24.30;59.20
67899;DHT22;54699;51.796;10.956;2023-06-22T07:00:13;24.20;59.50
67899;DHT22;54699;51.796;10.956;2023-06-22T07:02:42;24.20;59.60
67899;DHT22;54699;51.796;10.956;2023-06-22T07:05:11;24.20;59.30
67899;DHT22;54699;51.796;10.956;2023-06-22T07:07:40;24.10;59.70
67899;DHT22;54699;51.796;10.956;2023-06-22T07:10:08;24.10;60.00
67899;DHT22;54699;51.796;10.956;2023-06-22T07:12:36;24.10;60.00
67899;DHT22;54699;51.796;10.956;2023-06-22T07:15:04;24.30;59.90
67899;DHT22;54699;51.796;10.956;2023-06-22T07:17:33;24.20;59.50
67899;DHT22;54699;51.796;10.956;2023-06-22T07:20:00;24.20;59.80
67899;DHT22;54699;51.796;10.956;2023-06-22T07:22:34;24.20;59.80
67899;DHT22;54699;51.796;10.956;2023-06-22T07:25:02;24.30;59.60
67899;DHT22;54699;51.796;10.956;2023-06-22T07:27:35;24.30;59.50
67899;DHT22;54699;51.796;10.956;2023-06-22T07:30:08;24.40;59.30
67899;DHT22;54699;51.796;10.956;2023-06-22T07:32:36;24.30;59.20
67899;DHT22;54699;51.796;10.956;2023-06-22T07:35:04;24.30;59.40
67899;DHT22;54699;51.796;10.956;2023-06-22T07:37:35;24.60;59.10
67899;DHT22;54699;51.796;10.956;2023-06-22T07:40:08;24.40;60.00
67899;DHT22;54699;51.796;10.956;2023-06-22T07:42:36;24.80;58.90
67899;DHT22;54699;51.796;10.956;2023-06-22T07:45:08;24.90;58.70
67899;DHT22;54699;51.796;10.956;2023-06-22T07:47:38;25.00;58.90
67899;DHT22;54699;51.796;10.956;2023-06-22T07:50:05;25.20;58.80
67899;DHT22;54699;51.796;10.956;2023-06-22T07:52:32;25.10;58.60
67899;DHT22;54699;51.796;10.956;2023-06-22T07:55:00;25.20;58.90
67899;DHT22;54699;51.796;10.956;2023-06-22T07:57:29;25.10;58.50
67899;DHT22;54699;51.796;10.956;2023-06-22T07:59:59;25.30;58.40
67899;DHT22;54699;51.796;10.956;2023-06-22T08:02:26;25.30;58.50
67899;DHT22;54699;51.796;10.956;2023-06-22T08:04:56;25.60;58.50
67899;DHT22;54699;51.796;10.956;2023-06-22T08:07:23;25.20;58.40
67899;DHT22;54699;51.796;10.956;2023-06-22T08:09:52;25.00;59.00
67899;DHT22;54699;51.796;10.956;2023-06-22T08:12:19;24.90;59.40
67899;DHT22;54699;51.796;10.956;2023-06-22T08:14:48;24.90;59.70
67899;DHT22;54699;51.796;10.956;2023-06-22T08:17:15;24.70;60.00
67899;DHT22;54699;51.796;10.956;2023-06-22T08:19:42;24.90;60.00
67899;DHT22;54699;51.796;10.956;2023-06-22T08:22:09;24.70;60.30
67899;DHT22;54699;51.796;10.956;2023-06-22T08:24:36;24.70;60.70
67899;DHT22;54699;51.796;10.956;2023-06-22T08:27:03;24.90;60.60
67899;DHT22;54699;51.796;10.956;2023-06-22T08:29:33;25.00;60.50
67899;DHT22;54699;51.796;10.956;2023-06-22T08:32:04;25.10;60.70
67899;DHT22;54699;51.796;10.956;2023-06-22T08:34:32;25.00;60.80
67899;DHT22;54699;51.796;10.956;2023-06-22T08:37:00;25.10;60.90
67899;DHT22;54699;51.796;10.956;2023-06-22T08:39:31;25.00;60.80
67899;DHT22;54699;51.796;10.956;2023-06-22T08:41:59;25.10;60.70
67899;DHT22;54699;51.796;10.956;2023-06-22T08:44:26;25.10;60.70
67899;DHT22;54699;51.796;10.956;2023-06-22T08:46:53;25.10;60.80
67899;DHT22;54699;51.796;10.956;2023-06-22T08:49:22;25.00;61.00
67899;DHT22;54699;51.796;10.956;2023-06-22T08:51:48;25.30;60.30
67899;DHT22;54699;51.796;10.956;2023-06-22T08:54:18;25.30;60.60
67899;DHT22;54699;51.796;10.956;2023-06-22T08:56:46;25.30;60.80
67899;DHT22;54699;51.796;10.956;2023-06-22T08:59:12;25.70;60.10
67899;DHT22;54699;51.796;10.956;2023-06-22T09:01:40;25.50;60.50
67899;DHT22;54699;51.796;10.956;2023-06-22T09:04:10;25.50;60.10
67899;DHT22;54699;51.796;10.956;2023-06-22T09:06:39;25.60;60.30
67899;DHT22;54699;51.796;10.956;2023-06-22T09:09:10;25.60;60.50
67899;DHT22;54699;51.796;10.956;2023-06-22T09:11:37;25.70;60.20
67899;DHT22;54699;51.796;10.956;2023-06-22T09:14:04;25.50;60.10
67899;DHT22;54699;51.796;10.956;2023-06-22T09:16:31;25.70;59.90
67899;DHT22;54699;51.796;10.956;2023-06-22T09:18:58;25.70;59.60
67899;DHT22;54699;51.796;10.956;2023-06-22T09:21:25;25.90;59.60
67899;DHT22;54699;51.796;10.956;2023-06-22T09:23:55;25.90;59.60
67899;DHT22;54699;51.796;10.956;2023-06-22T09:26:24;25.90;59.50
67899;DHT22;54699;51.796;10.956;2023-06-22T09:28:50;26.00;59.20
67899;DHT22;54699;51.796;10.956;2023-06-22T09:31:17;26.20;58.70
67899;DHT22;54699;51.796;10.956;2023-06-22T09:33:51;26.50;58.20
67899;DHT22;54699;51.796;10.956;2023-06-22T09:36:21;26.50;57.80
67899;DHT22;54699;51.796;10.956;2023-06-22T09:38:56;26.40;58.20
67899;DHT22;54699;51.796;10.956;2023-06-22T09:41:31;26.60;58.10
67899;DHT22;54699;51.796;10.956;2023-06-22T09:44:01;26.60;57.80
67899;DHT22;54699;51.796;10.956;2023-06-22T09:46:31;26.60;58.50
67899;DHT22;54699;51.796;10.956;2023-06-22T09:48:59;26.70;58.20
67899;DHT22;54699;51.796;10.956;2023-06-22T09:51:26;26.80;57.60
67899;DHT22;54699;51.796;10.956;2023-06-22T09:53:53;26.80;58.00
67899;DHT22;54699;51.796;10.956;2023-06-22T09:56:21;26.80;57.90
67899;DHT22;54699;51.796;10.956;2023-06-22T09:58:49;27.00;58.20
67899;DHT22;54699;51.796;10.956;2023-06-22T10:01:19;27.00;57.50
67899;DHT22;54699;51.796;10.956;2023-06-22T10:03:47;26.90;57.10
67899;DHT22;54699;51.796;10.956;2023-06-22T10:06:13;27.00;57.30
67899;DHT22;54699;51.796;10.956;2023-06-22T10:08:40;26.80;57.10
67899;DHT22;54699;51.796;10.956;2023-06-22T10:11:07;27.00;56.20
67899;DHT22;54699;51.796;10.956;2023-06-22T10:13:36;27.00;56.20
67899;DHT22;54699;51.796;10.956;2023-06-22T10:16:03;26.90;56.00
67899;DHT22;54699;51.796;10.956;2023-06-22T10:18:30;26.90;56.50
67899;DHT22;54699;51.796;10.956;2023-06-22T10:20:58;26.80;56.40
67899;DHT22;54699;51.796;10.956;2023-06-22T10:23:25;26.80;56.20
67899;DHT22;54699;51.796;10.956;2023-06-22T10:25:52;26.90;56.30
67899;DHT22;54699;51.796;10.956;2023-06-22T10:28:19;27.00;56.00
67899;DHT22;54699;51.796;10.956;2023-06-22T10:30:47;26.90;56.00
67899;DHT22;54699;51.796;10.956;2023-06-22T10:33:14;27.00;56.10
67899;DHT22;54699;51.796;10.956;2023-06-22T10:35:41;26.90;56.00
67899;DHT22;54699;51.796;10.956;2023-06-22T10:38:08;26.90;56.30
67899;DHT22;54699;51.796;10.956;2023-06-22T10:40:35;26.90;56.50
67899;DHT22;54699;51.796;10.956;2023-06-22T10:43:05;27.00;56.20
67899;DHT22;54699;51.796;10.956;2023-06-22T10:45:32;26.90;56.60
67899;DHT22;54699;51.796;10.956;2023-06-22T10:48:03;26.90;56.40
67899;DHT22;54699;51.796;10.956;2023-06-22T10:50:30;27.00;56.60
67899;DHT22;54699;51.796;10.956;2023-06-22T10:52:57;27.00;56.50
67899;DHT22;54699;51.796;10.956;2023-06-22T10:55:24;27.00;56.40
67899;DHT22;54699;51.796;10.956;2023-06-22T10:57:51;27.10;56.10
67899;DHT22;54699;51.796;10.956;2023-06-22T11:00:18;27.20;55.80
67899;DHT22;54699;51.796;10.956;2023-06-22T11:02:46;27.30;55.70
67899;DHT22;54699;51.796;10.956;2023-06-22T11:05:15;27.20;55.70
67899;DHT22;54699;51.796;10.956;2023-06-22T11:07:42;27.30;55.40
67899;DHT22;54699;51.796;10.956;2023-06-22T11:10:09;27.20;55.40
67899;DHT22;54699;51.796;10.956;2023-06-22T11:12:36;27.20;55.60
67899;DHT22;54699;51.796;10.956;2023-06-22T11:15:04;27.30;55.20
67899;DHT22;54699;51.796;10.956;2023-06-22T11:17:31;27.40;55.10
67899;DHT22;54699;51.796;10.956;2023-06-22T11:19:59;27.40;54.90
67899;DHT22;54699;51.796;10.956;2023-06-22T11:22:27;27.50;54.40
67899;DHT22;54699;51.796;10.956;2023-06-22T11:24:58;27.50;54.00
67899;DHT22;54699;51.796;10.956;2023-06-22T11:27:25;27.80;53.70
67899;DHT22;54699;51.796;10.956;2023-06-22T11:29:53;27.60;53.40
67899;DHT22;54699;51.796;10.956;2023-06-22T11:32:20;27.40;54.00
67899;DHT22;54699;51.796;10.956;2023-06-22T11:34:47;27.50;53.70
67899;DHT22;54699;51.796;10.956;2023-06-22T11:37:18;27.70;53.40
67899;DHT22;54699;51.796;10.956;2023-06-22T11:39:46;27.60;53.00
67899;DHT22;54699;51.796;10.956;2023-06-22T11:42:14;28.00;52.70
67899;DHT22;54699;51.796;10.956;2023-06-22T11:44:41;28.00;52.40
67899;DHT22;54699;51.796;10.956;2023-06-22T11:47:08;28.00;52.50
67899;DHT22;54699;51.796;10.956;2023-06-22T11:49:35;27.70;52.50
67899;DHT22;54699;51.796;10.956;2023-06-22T11:52:02;27.70;52.30
67899;DHT22;54699;51.796;10.956;2023-06-22T11:54:29;27.70;52.70
67899;DHT22;54699;51.796;10.956;2023-06-22T11:56:58;27.40;52.50
67899;DHT22;54699;51.796;10.956;2023-06-22T11:59:25;27.60;52.80
67899;DHT22;54699;51.796;10.956;2023-06-22T12:01:52;27.70;52.20
67899;DHT22;54699;51.796;10.956;2023-06-22T12:04:19;28.10;51.70
67899;DHT22;54699;51.796;10.956;2023-06-22T12:06:45;28.10;51.00
67899;DHT22;54699;51.796;10.956;2023-06-22T12:09:14;27.70;50.90
67899;DHT22;54699;51.796;10.956;2023-06-22T12:11:41;27.70;51.40
67899;DHT22;54699;51.796;10.956;2023-06-22T12:14:10;27.80;50.70
67899;DHT22;54699;51.796;10.956;2023-06-22T12:16:36;27.80;50.80
67899;DHT22;54699;51.796;10.956;2023-06-22T12:19:04;27.80;50.70
67899;DHT22;54699;51.796;10.956;2023-06-22T12:21:30;27.70;50.90
67899;DHT22;54699;51.796;10.956;2023-06-22T12:23:58;27.80;50.80
67899;DHT22;54699;51.796;10.956;2023-06-22T12:26:24;27.80;50.90
67899;DHT22;54699;51.796;10.956;2023-06-22T12:28:52;27.70;51.00
67899;DHT22;54699;51.796;10.956;2023-06-22T12:31:20;27.70;50.90
67899;DHT22;54699;51.796;10.956;2023-06-22T12:33:46;27.70;51.10
67899;DHT22;54699;51.796;10.956;2023-06-22T12:36:13;27.70;51.00
67899;DHT22;54699;51.796;10.956;2023-06-22T12:38:41;27.90;50.50
67899;DHT22;54699;51.796;10.956;2023-06-22T12:41:08;27.90;50.50
67899;DHT22;54699;51.796;10.956;2023-06-22T12:43:35;27.80;50.70
67899;DHT22;54699;51.796;10.956;2023-06-22T12:46:02;27.90;50.20
67899;DHT22;54699;51.796;10.956;2023-06-22T12:48:30;27.80;50.40
67899;DHT22;54699;51.796;10.956;2023-06-22T12:50:57;27.90;51.00
67899;DHT22;54699;51.796;10.956;2023-06-22T12:53:24;28.00;50.50
67899;DHT22;54699;51.796;10.956;2023-06-22T12:55:52;27.90;50.20
67899;DHT22;54699;51.796;10.956;2023-06-22T12:58:19;27.90;50.30
67899;DHT22;54699;51.796;10.956;2023-06-22T13:00:46;27.90;50.50
67899;DHT22;54699;51.796;10.956;2023-06-22T13:03:13;28.30;50.00
67899;DHT22;54699;51.796;10.956;2023-06-22T13:05:41;28.60;50.00
67899;DHT22;54699;51.796;10.956;2023-06-22T13:08:08;28.70;49.50
67899;DHT22;54699;51.796;10.956;2023-06-22T13:10:36;28.70;50.20
67899;DHT22;54699;51.796;10.956;2023-06-22T13:13:03;28.70;49.20
67899;DHT22;54699;51.796;10.956;2023-06-22T13:15:29;28.80;49.20
67899;DHT22;54699;51.796;10.956;2023-06-22T13:17:56;28.90;49.10
67899;DHT22;54699;51.796;10.956;2023-06-22T13:20:23;28.90;49.10
67899;DHT22;54699;51.796;10.956;2023-06-22T13:22:51;28.80;49.10
67899;DHT22;54699;51.796;10.956;2023-06-22T13:25:19;28.90;48.90
67899;DHT22;54699;51.796;10.956;2023-06-22T13:27:49;28.70;48.70
67899;DHT22;54699;51.796;10.956;2023-06-22T13:30:16;28.50;49.00
67899;DHT22;54699;51.796;10.956;2023-06-22T13:32:42;28.60;49.20
67899;DHT22;54699;51.796;10.956;2023-06-22T13:35:09;28.50;49.40
67899;DHT22;54699;51.796;10.956;2023-06-22T13:37:37;28.40;49.50
67899;DHT22;54699;51.796;10.956;2023-06-22T13:40:06;28.40;49.60
67899;DHT22;54699;51.796;10.956;2023-06-22T13:42:34;28.40;49.20
67899;DHT22;54699;51.796;10.956;2023-06-22T13:45:01;28.30;49.50
67899;DHT22;54699;51.796;10.956;2023-06-22T13:47:28;28.40;49.60
67899;DHT22;54699;51.796;10.956;2023-06-22T13:49:56;28.60;49.40
67899;DHT22;54699;51.796;10.956;2023-06-22T13:52:24;28.60;49.50
67899;DHT22;54699;51.796;10.956;2023-06-22T13:54:51;28.80;49.50
67899;DHT22;54699;51.796;10.956;2023-06-22T13:57:19;28.80;49.40
67899;DHT22;54699;51.796;10.956;2023-06-22T13:59:46;28.50;49.60
67899;DHT22;54699;51.796;10.956;2023-06-22T14:02:13;28.70;49.60
67899;DHT22;54699;51.796;10.956;2023-06-22T14:04:40;28.70;49.70
67899;DHT22;54699;51.796;10.956;2023-06-22T14:07:07;28.70;49.80
67899;DHT22;54699;51.796;10.956;2023-06-22T14:09:33;28.30;50.10
67899;DHT22;54699;51.796;10.956;2023-06-22T14:12:02;28.50;50.20
67899;DHT22;54699;51.796;10.956;2023-06-22T14:14:32;28.50;50.20
67899;DHT22;54699;51.796;10.956;2023-06-22T14:16:59;28.50;50.20
67899;DHT22;54699;51.796;10.956;2023-06-22T14:19:26;28.40;50.80
67899;DHT22;54699;51.796;10.956;2023-06-22T14:21:53;28.40;50.90
67899;DHT22;54699;51.796;10.956;2023-06-22T14:24:20;28.40;51.30
67899;DHT22;54699;51.796;10.956;2023-06-22T14:26:47;28.20;51.20
67899;DHT22;54699;51.796;10.956;2023-06-22T14:29:13;28.20;51.90
67899;DHT22;54699;51.796;10.956;2023-06-22T14:31:44;28.10;51.90
67899;DHT22;54699;51.796;10.956;2023-06-22T14:34:11;28.20;52.10
67899;DHT22;54699;51.796;10.956;2023-06-22T14:36:38;28.00;52.10
67899;DHT22;54699;51.796;10.956;2023-06-22T14:39:05;28.10;52.30
67899;DHT22;54699;51.796;10.956;2023-06-22T14:41:32;28.10;52.30
67899;DHT22;54699;51.796;10.956;2023-06-22T14:43:59;28.10;52.50
67899;DHT22;54699;51.796;10.956;2023-06-22T14:46:26;28.00;53.00
67899;DHT22;54699;51.796;10.956;2023-06-22T14:48:54;28.00;52.80
67899;DHT22;54699;51.796;10.956;2023-06-22T14:51:21;28.00;52.90
67899;DHT22;54699;51.796;10.956;2023-06-22T14:53:49;27.90;53.20
67899;DHT22;54699;51.796;10.956;2023-06-22T14:56:15;28.00;53.10
67899;DHT22;54699;51.796;10.956;2023-06-22T14:58:42;27.90;52.80
67899;DHT22;54699;51.796;10.956;2023-06-22T15:01:10;27.90;52.70
67899;DHT22;54699;51.796;10.956;2023-06-22T15:03:37;27.80;52.80
67899;DHT22;54699;51.796;10.956;2023-06-22T15:06:06;27.60;53.00
67899;DHT22;54699;51.796;10.956;2023-06-22T15:08:33;27.70;53.20
67899;DHT22;54699;51.796;10.956;2023-06-22T15:11:00;27.70;53.00
67899;DHT22;54699;51.796;10.956;2023-06-22T15:13:28;27.70;53.00
67899;DHT22;54699;51.796;10.956;2023-06-22T15:15:58;27.60;52.80
67899;DHT22;54699;51.796;10.956;2023-06-22T15:18:24;27.60;52.90
67899;DHT22;54699;51.796;10.956;2023-06-22T15:20:51;27.60;52.80
67899;DHT22;54699;51.796;10.956;2023-06-22T15:23:20;27.60;52.50